< Cyclone 196602 1966 Season Cyclone 196607 >
Cyclone 196604 (CAROL-DAISY)
General InformationTrack Information on Google Maps || ResourceGoogle EarthGE AnimationAtom FeedGeoJSON
Detalied Best Track (Time Zone = UTC)
Year Month Day Hour Lat. Long. Pressure (hPa) Wind (kt) Class Image Chart
1965 12 25 10 -8.9 100.0 1005 0 0 -- --
1965 12 25 16 -9.0 99.5 1005 0 0 -- --
1965 12 25 19 -9.1 99.2 1004 0 0 -- --
1965 12 25 22 -9.2 98.9 1004 0 0 -- --
1965 12 26 01 -9.4 98.6 1003 0 0 -- --
1965 12 26 04 -9.5 98.3 1002 0 0 -- --
1965 12 26 07 -9.7 98.0 1001 0 0 -- --
1965 12 26 16 -10.4 96.8 1000 0 0 -- --
1965 12 27 01 -11.3 95.6 998 0 0 -- --
1965 12 27 04 -11.6 95.1 998 0 0 -- --
1965 12 27 07 -11.8 94.6 997 0 0 -- --
1965 12 27 10 -12.0 94.4 997 0 0 -- --
1965 12 27 16 -12.5 93.9 998 0 0 -- --
1965 12 27 19 -12.7 93.7 999 0 0 -- --
1965 12 27 22 -12.9 93.5 1000 0 0 -- --
1965 12 28 01 -13.1 93.3 1001 0 0 -- --
1965 12 30 16 -11.2 92.8 999 0 0 -- --
1965 12 30 19 -11.4 91.8 999 0 0 -- --
1965 12 30 22 -11.7 91.4 999 0 0 -- --
1965 12 31 01 -11.9 90.9 999 0 0 -- --
1965 12 31 04 -12.1 90.4 1000 0 0 -- --
1965 12 31 07 -12.4 89.9 1000 0 0 -- --
1965 12 31 10 -12.6 89.4 1000 0 0 -- --
1965 12 31 16 -12.9 88.5 1000 0 0 -- --
1965 12 31 19 -13.2 88.0 1001 0 0 -- --
1966 1 1 01 -13.8 87.2 1003 0 0 -- --
< Cyclone 196602 1966 Season Cyclone 196607 >

Help